• Join FlightAware (Why Join?)
  • Login
  • US Flag 
12:21AM EST


 

Airport Tracker/Info


-or-


 

Live Flight TrackerFlight Track Log ✈ N826CH ✈ 24-May-2014 ✈ KUAO - KSAC

Flight Track Log - Related Links

Times and Time Zones

All times are in EDT time to prevent confusion due to time zone crossing. See the N826CH flight status page for this flight to view local times or setup timezone preferences in your user account.

Time Position Orientation Groundspeed Altitude Reporting Facility
EDT Latitude Longitude Course Direction KTS MPH feet Rate Location/Type
03:36PM 45.1744 -122.7836 180° South 141 162 3,400  Level Seattle Center
03:36PM 45.1575 -122.7836 180° South 144 166 3,900 720 Climbing Seattle Center
03:37PM 45.1261 -122.7825 179° South 135 155 4,500 780 Climbing Seattle Center
03:38PM 45.0925 -122.7958 196° South 131 151 5,500 840 Climbing Seattle Center
03:39PM 45.0592 -122.7964 181° South 129 148 6,300 720 Climbing Seattle Center
03:40PM 45.0225 -122.7883 171° South 133 153 7,000 540 Climbing Seattle Center
03:41PM 44.9711 -122.7803 174° South 149 171 7,500 420 Climbing Seattle Center
03:42PM 44.9269 -122.7711 172° South 155 178 7,900 360 Climbing Seattle Center
03:43PM 44.8828 -122.7617 171° South 158 182 8,300 360 Climbing Seattle Center
03:44PM 44.8389 -122.7506 170° South 158 182 8,700 360 Climbing Seattle Center
03:45PM 44.7942 -122.7408 171° South 159 183 9,100 420 Climbing Seattle Center
03:46PM 44.7481 -122.7319 172° South 161 185 9,600 420 Climbing Seattle Center
03:47PM 44.7025 -122.7211 170° South 162 186 10,000 360 Climbing Seattle Center
03:48PM 44.6553 -122.7106 171° South 168 193 10,400 360 Climbing Seattle Center
03:49PM 44.6086 -122.7006 171° South 168 193 10,800 240 Climbing Seattle Center
03:50PM 44.5589 -122.6903 172° South 168 193 10,900 60 Climbing Seattle Center
03:51PM 44.5097 -122.6806 172° South 175 201 11,000  Climbing Seattle Center
03:52PM 44.4608 -122.6681 170° South 176 203 10,900 -60 Descending Seattle Center
03:53PM 44.4106 -122.6575 171° South 178 205 10,900  Level Seattle Center
03:54PM 44.3617 -122.6464 171° South 179 206 11,000  Climbing Seattle Center
03:55PM 44.3117 -122.6358 171° South 179 206 10,900 -60 Descending Seattle Center
03:56PM 44.2619 -122.6258 172° South 179 206 10,900  Level Seattle Center
03:57PM 44.2119 -122.6144 171° South 180 207 10,900  Level Seattle Center
03:58PM 44.1622 -122.6036 171° South 180 207 10,900  Level Seattle Center
03:59PM 44.1128 -122.5925 171° South 180 207 10,900  Level Seattle Center
04:00PM 44.0544 -122.5792 171° South 180 207 10,900  Level Seattle Center
04:01PM 44.0044 -122.5689 172° South 180 207 10,900  Level Seattle Center
04:02PM 43.9547 -122.5581 171° South 180 207 11,000  Climbing Seattle Center
04:03PM 43.9047 -122.5475 171° South 180 207 11,000  Level Seattle Center
04:04PM 43.8539 -122.5369 171° South 181 208 11,000 -60 Level Seattle Center
04:06PM 43.8047 -122.5256 171° South 181 208 10,900 -60 Descending Seattle Center
04:07PM 43.7542 -122.5147 171° South 181 208 10,900  Level Seattle Center
04:08PM 43.7039 -122.5050 172° South 181 208 10,900  Level Seattle Center
04:09PM 43.6539 -122.4933 170° South 182 209 10,900  Level Seattle Center
04:10PM 43.6042 -122.4828 171° South 182 209 10,900  Level Seattle Center
04:11PM 43.5544 -122.4733 172° South 182 209 11,000  Climbing Seattle Center
04:12PM 43.5039 -122.4625 171° South 182 209 11,000  Level Seattle Center
04:13PM 43.4528 -122.4533 173° South 182 209 11,000 -60 Level Seattle Center
04:14PM 43.4025 -122.4406 170° South 183 211 10,900 -60 Descending Seattle Center
04:15PM 43.3519 -122.4317 173° South 183 211 10,900  Level Seattle Center
04:16PM 43.3011 -122.4203 171° South 183 211 11,000  Climbing Seattle Center
04:17PM 43.2403 -122.4122 174° South 186 214 11,000 -60 Level Seattle Center
04:18PM 43.1881 -122.4011 171° South 183 211 10,900  Descending Seattle Center
04:19PM 43.1406 -122.3881 169° South 182 209 11,000  Climbing Seattle Center
04:20PM 43.0889 -122.3758 170° South 182 209 10,900 -60 Descending Seattle Center
04:21PM 43.0364 -122.3658 172° South 182 209 10,900  Level Seattle Center
04:22PM 42.9856 -122.3589 174° South 182 209 10,900  Level Seattle Center
04:23PM 42.9358 -122.3492 172° South 181 208 11,000  Climbing Seattle Center
04:24PM 42.8867 -122.3364 169° South 182 209 11,000  Level Seattle Center
04:25PM 42.8342 -122.3258 172° South 183 211 11,000 120 Level Seattle Center
04:26PM 42.7819 -122.3153 172° South 176 203 11,300 60 Climbing Seattle Center
04:27PM 42.7319 -122.3072 173° South 179 206 11,200 -120 Descending Seattle Center
04:28PM 42.6792 -122.2956 171° South 190 219 11,100 -60 Descending Seattle Center
04:29PM 42.6256 -122.2839 171° South 185 213 11,100 60 Level Seattle Center
04:30PM 42.5744 -122.2733 171° South 184 212 11,300  Climbing Seattle Center
04:31PM 42.5247 -122.2633 172° South 181 208 11,200 -60 Descending Seattle Center
04:32PM 42.4753 -122.2519 170° South 188 216 11,200  Level Seattle Center
04:33PM 42.4253 -122.2431 173° South 186 214 11,200  Level Seattle Center
04:34PM 42.3744 -122.2325 171° South 185 213 11,200  Level Seattle Center
04:35PM 42.3239 -122.2225 172° South 186 214 11,200  Level Seattle Center
04:36PM 42.2622 -122.2092 171° South 186 214 11,200  Level Seattle Center
04:37PM 42.2111 -122.1989 172° South 187 215 11,200  Level Seattle Center
04:38PM 42.1606 -122.1883 171° South 187 215 11,200  Level Seattle Center
04:39PM 42.1097 -122.1767 170° South 187 215 11,200 -120 Level Seattle Center
04:40PM 42.0581 -122.1647 170° South 187 215 11,000 -60 Descending Seattle Center
04:41PM 42.0067 -122.1550 172° South 188 216 11,100  Climbing Seattle Center
04:42PM 41.9564 -122.1450 172° South 187 215 11,100  Level Seattle Center
04:43PM 41.9061 -122.1356 172° South 187 215 11,100 -60 Level Seattle Center
04:44PM 41.8439 -122.1242 172° South 187 215 11,000 -60 Descending Seattle Center
04:45PM 41.7925 -122.1136 171° South 187 215 11,000  Level Seattle Center
04:46PM 41.7411 -122.1031 171° South 187 215 11,100  Climbing Seattle Center
04:47PM 41.6900 -122.0931 172° South 187 215 11,000 -60 Descending Seattle Center
04:48PM 41.6394 -122.0839 172° South 187 215 11,000  Level Seattle Center
04:49PM 41.5903 -122.0686 167° South 185 213 11,100  Climbing Seattle Center
04:50PM 41.5442 -122.0367 153° Southeast 185 213 11,100  Level Seattle Center
04:51PM 41.4969 -122.0053 154° Southeast 186 214 11,100  Level Seattle Center
04:52PM 41.4503 -121.9761 155° Southeast 186 214 11,200  Climbing Seattle Center
04:53PM 41.4006 -121.9531 161° South 186 214 11,100 -60 Descending Seattle Center
04:54PM 41.3478 -121.9472 175° South 187 215 11,100 -60 Level Seattle Center
04:55PM 41.2856 -121.9378 173° South 188 216 11,000  Descending Seattle Center
04:56PM 41.2333 -121.9283 172° South 188 216 11,200 60 Climbing Seattle Center
04:57PM 41.1803 -121.9203 173° South 189 217 11,200 -120 Level Seattle Center
04:58PM 41.1189 -121.9078 171° South 191 220 11,000 -120 Descending Oakland Center
05:00PM 41.0664 -121.9000 174° South 192 221 11,000  Level Oakland Center
05:01PM 41.0131 -121.8903 172° South 192 221 11,000  Level Oakland Center
05:02PM 40.9597 -121.8819 173° South 192 221 11,000 60 Level Oakland Center
05:02PM 40.9072 -121.8744 174° South 192 221 11,200  Climbing Seattle Center
05:03PM 40.8533 -121.8650 172° South 193 222 11,000 -120 Descending Seattle Center
05:04PM 40.7997 -121.8558 173° South 193 222 11,000  Level Seattle Center
05:05PM 40.7475 -121.8469 173° South 193 222 11,000  Level Seattle Center
05:06PM 40.6939 -121.8378 173° South 193 222 11,000  Level Seattle Center
05:08PM 40.6289 -121.8267 173° South 192 221 11,000  Level Oakland Center
05:09PM 40.5767 -121.8189 174° South 192 221 11,000  Level Oakland Center
05:10PM 40.5231 -121.8092 172° South 192 221 11,000  Level Oakland Center
05:11PM 40.4700 -121.8003 173° South 192 221 11,000  Level Oakland Center
05:12PM 40.4164 -121.7925 174° South 192 221 11,000  Level Oakland Center
05:13PM 40.3628 -121.7847 174° South 192 221 11,000 -60 Level Oakland Center
05:14PM 40.3086 -121.7750 172° South 193 222 10,900 -300 Descending Oakland Center
05:15PM 40.2528 -121.7642 172° South 197 227 10,400 -600 Descending Oakland Center
05:16PM 40.1944 -121.7519 171° South 207 238 9,700 -480 Descending Oakland Center
05:17PM 40.1275 -121.7403 172° South 205 236 9,500 -120 Descending Oakland Center
05:18PM 40.0744 -121.7297 171° South 196 226 9,500  Level Oakland Center
05:19PM 40.0231 -121.7192 171° South 192 221 9,500  Level Oakland Center
05:20PM 39.9708 -121.7100 172° South 192 221 9,500  Level Oakland Center
05:21PM 39.9189 -121.6992 171° South 191 220 9,500  Level Oakland Center
05:22PM 39.8667 -121.6889 171° South 191 220 9,500  Level Oakland Center
05:23PM 39.8133 -121.6811 174° South 191 220 9,600  Climbing Oakland Center
05:24PM 39.7614 -121.6819 181° South 189 217 9,500 -60 Descending Oakland Center
05:25PM 39.7089 -121.6814 180° South 189 217 9,500  Level Oakland Center
05:26PM 39.6553 -121.6800 179° South 189 217 9,500  Level Oakland Center
05:27PM 39.5928 -121.6797 180° South 189 217 9,500  Level Oakland Center
05:28PM 39.5403 -121.6781 179° South 188 216 9,500  Level Oakland Center
05:29PM 39.4872 -121.6786 180° South 188 216 9,500  Level Oakland Center
05:30PM 39.4400 -121.6789 180° South 189 217 9,500  Level Oakland Center
05:31PM 39.3875 -121.6767 178° South 189 217 9,500  Level Oakland Center
05:32PM 39.3233 -121.6783 181° South 190 219 9,500  Level Oakland Center
05:33PM 39.2703 -121.6767 179° South 190 219 9,500  Level Oakland Center
05:34PM 39.2172 -121.6769 180° South 190 219 9,500  Level Oakland Center
05:35PM 39.1631 -121.6772 180° South 191 220 9,500  Level Oakland Center
05:36PM 39.1100 -121.6764 179° South 191 220 9,500  Level Oakland Center
05:37PM 39.0564 -121.6736 178° South 191 220 9,500  Level Oakland Center
05:38PM 39.0042 -121.6531 163° South 192 221 9,500  Level Oakland Center
05:39PM 38.9522 -121.6369 166° South 193 222 9,500  Level Oakland Center
05:40PM 38.9006 -121.6197 165° South 193 222 9,500 -240 Level Oakland Center
05:41PM 38.8364 -121.5997 166° South 194 223 9,100 -540 Descending Oakland Center
05:42PM 38.7794 -121.5803 165° South 206 237 8,500 -720 Descending Oakland Center
05:43PM 38.7167 -121.5667 170° South 212 244 7,700 -780 Descending Northern Cal TRACON
05:44PM 38.6667 -121.5500 165° South 212 244 7,000 -660 Descending Northern Cal TRACON
05:45PM 38.6167 -121.5333 165° South 222 255 6,500 -660 Descending Northern Cal TRACON
05:46PM 38.5500 -121.5000 159° South 203 234 5,700 -720 Descending Northern Cal TRACON
05:47PM 38.5000 -121.5000 180° South 196 226 5,100 -720 Descending Northern Cal TRACON
05:48PM 38.4500 -121.4833 165° South 194 223 4,400 -300 Descending Northern Cal TRACON
05:49PM 38.4000 -121.4667 165° South 177 204 4,500 60 Climbing Northern Cal TRACON
05:53PM 38.3102 -121.4330 164° South  Level FlightAware Approximate
06:00PM 38.5125 -121.4935 165° South  Level Estimated
06:01PM 38.5125 -121.4935 155° Southeast  Level Estimated
06:02PM 38.5125 -121.4935 169° South  Level Estimated
06:03PM 38.5125 -121.4935 166° South  Level Estimated
06:04PM 38.5125 -121.4935 166° South  Level Estimated
06:05PM 38.5125 -121.4935 166° South  Level Estimated
06:06PM 38.5125 -121.4935 163° South  Level Estimated
06:07PM 38.5125 -121.4935 155° Southeast  Level Estimated
06:08PM 38.5125 -121.4935 169° South  Level Estimated
06:09PM 38.5125 -121.4935 166° South  Level Estimated
06:10PM 38.5125 -121.4935 166° South  Level Estimated
06:11PM 38.5125 -121.4935 166° South  Level Estimated
06:12PM 38.5125 -121.4935 163° South  Level Estimated
06:13PM 38.5125 -121.4935 155° Southeast  Level Estimated
06:14PM 38.5125 -121.4935 169° South  Level Estimated
06:15PM 38.5125 -121.4935 166° South  Level Estimated
06:16PM 38.5125 -121.4935 166° South  Level Estimated
06:17PM 38.5125 -121.4935 166° South  Level Estimated
06:18PM 38.5125 -121.4935 163° South  Level Estimated